sensor_id;sensor_type;location;lat;lon;timestamp;temperature;humidity
44121;DHT22;29783;52.504;13.478;2023-02-15T00:00:23;2.80;89.30
44121;DHT22;29783;52.504;13.478;2023-02-15T00:02:49;2.70;89.70
44121;DHT22;29783;52.504;13.478;2023-02-15T00:05:15;2.60;90.10
44121;DHT22;29783;52.504;13.478;2023-02-15T00:07:40;2.50;90.50
44121;DHT22;29783;52.504;13.478;2023-02-15T00:10:07;2.40;90.90
44121;DHT22;29783;52.504;13.478;2023-02-15T00:12:33;2.40;91.20
44121;DHT22;29783;52.504;13.478;2023-02-15T00:14:59;2.40;91.50
44121;DHT22;29783;52.504;13.478;2023-02-15T00:17:27;2.30;91.60
44121;DHT22;29783;52.504;13.478;2023-02-15T00:19:53;2.30;91.80
44121;DHT22;29783;52.504;13.478;2023-02-15T00:22:19;2.20;91.90
44121;DHT22;29783;52.504;13.478;2023-02-15T00:24:45;2.20;92.10
44121;DHT22;29783;52.504;13.478;2023-02-15T00:27:11;2.10;92.20
44121;DHT22;29783;52.504;13.478;2023-02-15T00:29:37;2.10;92.30
44121;DHT22;29783;52.504;13.478;2023-02-15T00:32:03;2.00;92.50
44121;DHT22;29783;52.504;13.478;2023-02-15T00:34:28;2.00;92.60
44121;DHT22;29783;52.504;13.478;2023-02-15T00:36:54;1.90;92.60
44121;DHT22;29783;52.504;13.478;2023-02-15T00:39:20;1.90;92.70
44121;DHT22;29783;52.504;13.478;2023-02-15T00:41:46;1.90;92.90
44121;DHT22;29783;52.504;13.478;2023-02-15T00:44:13;1.80;93.00
44121;DHT22;29783;52.504;13.478;2023-02-15T00:46:39;1.80;93.00
44121;DHT22;29783;52.504;13.478;2023-02-15T00:49:05;1.80;93.10
44121;DHT22;29783;52.504;13.478;2023-02-15T00:51:31;1.80;93.20
44121;DHT22;29783;52.504;13.478;2023-02-15T00:53:57;1.80;93.30
44121;DHT22;29783;52.504;13.478;2023-02-15T00:56:23;1.70;93.30
44121;DHT22;29783;52.504;13.478;2023-02-15T00:58:49;1.70;93.40
44121;DHT22;29783;52.504;13.478;2023-02-15T01:01:17;1.60;93.50
44121;DHT22;29783;52.504;13.478;2023-02-15T01:03:43;1.60;93.60
44121;DHT22;29783;52.504;13.478;2023-02-15T01:06:10;1.60;93.80
44121;DHT22;29783;52.504;13.478;2023-02-15T01:08:36;1.60;93.80
44121;DHT22;29783;52.504;13.478;2023-02-15T01:11:11;1.60;93.90
44121;DHT22;29783;52.504;13.478;2023-02-15T01:13:37;1.60;94.10
44121;DHT22;29783;52.504;13.478;2023-02-15T01:16:04;1.60;94.10
44121;DHT22;29783;52.504;13.478;2023-02-15T01:18:30;1.50;94.00
44121;DHT22;29783;52.504;13.478;2023-02-15T01:20:56;1.50;94.00
44121;DHT22;29783;52.504;13.478;2023-02-15T01:23:23;1.40;94.10
44121;DHT22;29783;52.504;13.478;2023-02-15T01:25:48;1.40;94.00
44121;DHT22;29783;52.504;13.478;2023-02-15T01:28:14;1.40;94.10
44121;DHT22;29783;52.504;13.478;2023-02-15T01:30:40;1.40;94.20
44121;DHT22;29783;52.504;13.478;2023-02-15T01:33:06;1.40;94.20
44121;DHT22;29783;52.504;13.478;2023-02-15T01:35:32;1.40;94.10
44121;DHT22;29783;52.504;13.478;2023-02-15T01:37:58;1.30;94.20
44121;DHT22;29783;52.504;13.478;2023-02-15T01:40:26;1.30;94.20
44121;DHT22;29783;52.504;13.478;2023-02-15T01:42:54;1.30;94.20
44121;DHT22;29783;52.504;13.478;2023-02-15T01:45:30;1.20;94.20
44121;DHT22;29783;52.504;13.478;2023-02-15T01:50:36;1.10;94.30
44121;DHT22;29783;52.504;13.478;2023-02-15T01:56:06;1.10;94.40
44121;DHT22;29783;52.504;13.478;2023-02-15T01:58:34;1.10;94.40
44121;DHT22;29783;52.504;13.478;2023-02-15T02:01:01;1.00;94.50
44121;DHT22;29783;52.504;13.478;2023-02-15T02:03:57;1.00;94.50
44121;DHT22;29783;52.504;13.478;2023-02-15T02:06:25;1.00;94.60
44121;DHT22;29783;52.504;13.478;2023-02-15T02:08:53;1.00;94.60
44121;DHT22;29783;52.504;13.478;2023-02-15T02:11:19;1.00;94.60
44121;DHT22;29783;52.504;13.478;2023-02-15T02:13:45;1.10;94.80
44121;DHT22;29783;52.504;13.478;2023-02-15T02:16:23;1.00;94.70
44121;DHT22;29783;52.504;13.478;2023-02-15T02:33:47;0.80;94.80
44121;DHT22;29783;52.504;13.478;2023-02-15T02:44:57;0.60;94.90
44121;DHT22;29783;52.504;13.478;2023-02-15T02:47:44;0.60;94.90
44121;DHT22;29783;52.504;13.478;2023-02-15T02:50:26;0.60;94.90
44121;DHT22;29783;52.504;13.478;2023-02-15T02:52:54;0.60;94.90
44121;DHT22;29783;52.504;13.478;2023-02-15T02:58:23;0.40;94.90
44121;DHT22;29783;52.504;13.478;2023-02-15T03:03:29;0.40;95.00
44121;DHT22;29783;52.504;13.478;2023-02-15T03:05:59;0.40;95.10
44121;DHT22;29783;52.504;13.478;2023-02-15T03:08:32;0.40;95.10
44121;DHT22;29783;52.504;13.478;2023-02-15T03:11:00;0.30;95.00
44121;DHT22;29783;52.504;13.478;2023-02-15T03:13:27;0.30;95.00
44121;DHT22;29783;52.504;13.478;2023-02-15T03:15:54;0.20;95.00
44121;DHT22;29783;52.504;13.478;2023-02-15T03:18:44;0.20;95.00
44121;DHT22;29783;52.504;13.478;2023-02-15T03:21:21;0.20;95.20
44121;DHT22;29783;52.504;13.478;2023-02-15T03:23:56;0.20;95.20
44121;DHT22;29783;52.504;13.478;2023-02-15T03:26:24;0.20;95.20
44121;DHT22;29783;52.504;13.478;2023-02-15T03:28:53;0.20;95.30
44121;DHT22;29783;52.504;13.478;2023-02-15T03:31:21;0.10;95.10
44121;DHT22;29783;52.504;13.478;2023-02-15T03:33:55;0.10;95.10
44121;DHT22;29783;52.504;13.478;2023-02-15T03:39:35;0.00;95.10
44121;DHT22;29783;52.504;13.478;2023-02-15T03:42:14;0.00;95.20
44121;DHT22;29783;52.504;13.478;2023-02-15T03:44:54;0.00;95.20
44121;DHT22;29783;52.504;13.478;2023-02-15T03:47:29;0.10;95.40
44121;DHT22;29783;52.504;13.478;2023-02-15T03:50:18;0.10;95.50
44121;DHT22;29783;52.504;13.478;2023-02-15T03:53:08;0.00;95.40
44121;DHT22;29783;52.504;13.478;2023-02-15T03:55:35;0.00;95.30
44121;DHT22;29783;52.504;13.478;2023-02-15T03:58:01;0.00;95.50
44121;DHT22;29783;52.504;13.478;2023-02-15T04:01:00;-3276.70;95.30
44121;DHT22;29783;52.504;13.478;2023-02-15T04:04:00;-3276.70;95.30
44121;DHT22;29783;52.504;13.478;2023-02-15T04:06:26;-3276.70;95.40
44121;DHT22;29783;52.504;13.478;2023-02-15T04:08:52;-3276.60;95.30
44121;DHT22;29783;52.504;13.478;2023-02-15T04:11:36;-3276.60;95.40
44121;DHT22;29783;52.504;13.478;2023-02-15T04:14:02;-3276.60;95.50
44121;DHT22;29783;52.504;13.478;2023-02-15T04:16:47;-3276.70;95.50
44121;DHT22;29783;52.504;13.478;2023-02-15T04:19:13;-3276.70;95.60
44121;DHT22;29783;52.504;13.478;2023-02-15T04:21:57;-3276.50;95.40
44121;DHT22;29783;52.504;13.478;2023-02-15T04:24:42;-3276.60;95.70
44121;DHT22;29783;52.504;13.478;2023-02-15T04:27:26;-3276.50;95.40
44121;DHT22;29783;52.504;13.478;2023-02-15T04:29:52;-3276.40;95.30
44121;DHT22;29783;52.504;13.478;2023-02-15T04:32:18;-3276.30;95.30
44121;DHT22;29783;52.504;13.478;2023-02-15T04:34:43;-3276.20;95.30
44121;DHT22;29783;52.504;13.478;2023-02-15T04:37:09;-3276.20;95.50
44121;DHT22;29783;52.504;13.478;2023-02-15T04:39:36;-3276.30;95.50
44121;DHT22;29783;52.504;13.478;2023-02-15T04:42:01;-3276.20;95.40
44121;DHT22;29783;52.504;13.478;2023-02-15T04:44:27;-3276.20;95.40
44121;DHT22;29783;52.504;13.478;2023-02-15T04:46:53;-3276.20;95.50
44121;DHT22;29783;52.504;13.478;2023-02-15T04:49:18;-3276.00;95.30
44121;DHT22;29783;52.504;13.478;2023-02-15T04:51:44;-3276.00;95.30
44121;DHT22;29783;52.504;13.478;2023-02-15T04:54:10;-3276.00;95.40
44121;DHT22;29783;52.504;13.478;2023-02-15T04:56:35;-3276.00;95.30
44121;DHT22;29783;52.504;13.478;2023-02-15T04:59:03;-3275.90;95.30
44121;DHT22;29783;52.504;13.478;2023-02-15T05:01:29;-3275.90;95.30
44121;DHT22;29783;52.504;13.478;2023-02-15T05:03:54;-3275.90;95.40
44121;DHT22;29783;52.504;13.478;2023-02-15T05:06:20;-3275.90;95.50
44121;DHT22;29783;52.504;13.478;2023-02-15T05:08:46;-3275.80;95.30
44121;DHT22;29783;52.504;13.478;2023-02-15T05:11:12;-3275.80;95.30
44121;DHT22;29783;52.504;13.478;2023-02-15T05:13:38;-3275.80;95.50
44121;DHT22;29783;52.504;13.478;2023-02-15T05:16:04;-3275.70;95.30
44121;DHT22;29783;52.504;13.478;2023-02-15T05:18:29;-3275.80;95.50
44121;DHT22;29783;52.504;13.478;2023-02-15T05:20:55;-3275.80;95.50
44121;DHT22;29783;52.504;13.478;2023-02-15T05:23:21;-3275.80;95.50
44121;DHT22;29783;52.504;13.478;2023-02-15T05:25:48;-3275.80;95.60
44121;DHT22;29783;52.504;13.478;2023-02-15T05:28:33;-3275.90;95.60
44121;DHT22;29783;52.504;13.478;2023-02-15T05:31:02;-3276.00;95.90
44121;DHT22;29783;52.504;13.478;2023-02-15T05:33:28;-3276.10;96.00
44121;DHT22;29783;52.504;13.478;2023-02-15T05:35:54;-3276.20;96.10
44121;DHT22;29783;52.504;13.478;2023-02-15T05:38:20;-3276.30;96.10
44121;DHT22;29783;52.504;13.478;2023-02-15T05:40:45;-3276.40;96.20
44121;DHT22;29783;52.504;13.478;2023-02-15T05:43:11;-3276.50;96.20
44121;DHT22;29783;52.504;13.478;2023-02-15T05:45:37;-3276.60;96.30
44121;DHT22;29783;52.504;13.478;2023-02-15T05:48:03;-3276.60;96.30
44121;DHT22;29783;52.504;13.478;2023-02-15T05:50:29;-3276.70;96.30
44121;DHT22;29783;52.504;13.478;2023-02-15T05:52:54;-3276.70;96.30
44121;DHT22;29783;52.504;13.478;2023-02-15T05:55:20;0.00;96.20
44121;DHT22;29783;52.504;13.478;2023-02-15T05:57:46;0.00;96.20
44121;DHT22;29783;52.504;13.478;2023-02-15T06:00:13;0.00;96.30
44121;DHT22;29783;52.504;13.478;2023-02-15T06:02:39;0.00;96.20
44121;DHT22;29783;52.504;13.478;2023-02-15T06:05:06;0.00;96.00
44121;DHT22;29783;52.504;13.478;2023-02-15T06:07:32;0.00;96.00
44121;DHT22;29783;52.504;13.478;2023-02-15T06:09:58;-3276.70;96.10
44121;DHT22;29783;52.504;13.478;2023-02-15T06:12:24;0.00;96.10
44121;DHT22;29783;52.504;13.478;2023-02-15T06:14:49;0.00;96.10
44121;DHT22;29783;52.504;13.478;2023-02-15T06:17:15;0.00;96.00
44121;DHT22;29783;52.504;13.478;2023-02-15T06:19:42;0.00;96.00
44121;DHT22;29783;52.504;13.478;2023-02-15T06:22:08;0.00;96.00
44121;DHT22;29783;52.504;13.478;2023-02-15T06:24:34;0.00;96.00
44121;DHT22;29783;52.504;13.478;2023-02-15T06:26:59;-3276.70;95.90
44121;DHT22;29783;52.504;13.478;2023-02-15T06:29:25;-3276.70;95.90
44121;DHT22;29783;52.504;13.478;2023-02-15T06:31:51;-3276.70;95.90
44121;DHT22;29783;52.504;13.478;2023-02-15T06:34:17;-3276.60;95.90
44121;DHT22;29783;52.504;13.478;2023-02-15T06:36:42;-3276.70;96.00
44121;DHT22;29783;52.504;13.478;2023-02-15T06:39:08;-3276.70;96.00
44121;DHT22;29783;52.504;13.478;2023-02-15T06:41:34;-3276.60;95.90
44121;DHT22;29783;52.504;13.478;2023-02-15T06:44:00;-3276.60;95.90
44121;DHT22;29783;52.504;13.478;2023-02-15T06:46:26;-3276.60;96.10
44121;DHT22;29783;52.504;13.478;2023-02-15T06:48:51;-3276.70;96.20
44121;DHT22;29783;52.504;13.478;2023-02-15T06:51:17;-3276.70;96.10
44121;DHT22;29783;52.504;13.478;2023-02-15T06:53:43;-3276.50;95.90
44121;DHT22;29783;52.504;13.478;2023-02-15T06:56:10;-3276.50;96.10
44121;DHT22;29783;52.504;13.478;2023-02-15T06:58:37;-3276.50;96.20
44121;DHT22;29783;52.504;13.478;2023-02-15T07:01:04;-3276.70;96.30
44121;DHT22;29783;52.504;13.478;2023-02-15T07:03:30;-3276.70;96.30
44121;DHT22;29783;52.504;13.478;2023-02-15T07:05:58;-3276.70;96.20
44121;DHT22;29783;52.504;13.478;2023-02-15T07:08:25;-3276.70;96.40
44121;DHT22;29783;52.504;13.478;2023-02-15T07:10:52;-3276.70;96.30
44121;DHT22;29783;52.504;13.478;2023-02-15T07:13:19;-3276.70;96.30
44121;DHT22;29783;52.504;13.478;2023-02-15T07:15:46;0.00;96.40
44121;DHT22;29783;52.504;13.478;2023-02-15T07:18:12;0.00;96.40
44121;DHT22;29783;52.504;13.478;2023-02-15T07:20:38;0.00;96.50
44121;DHT22;29783;52.504;13.478;2023-02-15T07:23:06;0.00;96.30
44121;DHT22;29783;52.504;13.478;2023-02-15T07:25:33;0.20;96.60
44121;DHT22;29783;52.504;13.478;2023-02-15T07:28:00;0.10;96.40
44121;DHT22;29783;52.504;13.478;2023-02-15T07:30:27;0.00;96.20
44121;DHT22;29783;52.504;13.478;2023-02-15T07:32:57;0.00;96.30
44121;DHT22;29783;52.504;13.478;2023-02-15T07:35:49;0.00;96.50
44121;DHT22;29783;52.504;13.478;2023-02-15T07:38:15;0.10;96.50
44121;DHT22;29783;52.504;13.478;2023-02-15T07:40:42;0.20;96.50
44121;DHT22;29783;52.504;13.478;2023-02-15T07:43:07;0.30;96.50
44121;DHT22;29783;52.504;13.478;2023-02-15T07:45:33;0.20;96.40
44121;DHT22;29783;52.504;13.478;2023-02-15T07:48:00;0.10;96.20
44121;DHT22;29783;52.504;13.478;2023-02-15T07:50:26;0.10;96.20
44121;DHT22;29783;52.504;13.478;2023-02-15T07:52:52;0.20;96.40
44121;DHT22;29783;52.504;13.478;2023-02-15T07:55:18;0.10;96.10
44121;DHT22;29783;52.504;13.478;2023-02-15T07:57:45;0.20;96.20
44121;DHT22;29783;52.504;13.478;2023-02-15T08:00:16;0.10;96.10
44121;DHT22;29783;52.504;13.478;2023-02-15T08:02:47;0.20;96.10
44121;DHT22;29783;52.504;13.478;2023-02-15T08:05:13;0.20;96.10
44121;DHT22;29783;52.504;13.478;2023-02-15T08:07:38;0.10;95.80
44121;DHT22;29783;52.504;13.478;2023-02-15T08:10:05;0.20;96.00
44121;DHT22;29783;52.504;13.478;2023-02-15T08:12:31;0.30;96.10
44121;DHT22;29783;52.504;13.478;2023-02-15T08:14:57;0.30;95.90
44121;DHT22;29783;52.504;13.478;2023-02-15T08:17:23;0.30;95.60
44121;DHT22;29783;52.504;13.478;2023-02-15T08:19:49;0.30;95.70
44121;DHT22;29783;52.504;13.478;2023-02-15T08:22:14;0.40;95.70
44121;DHT22;29783;52.504;13.478;2023-02-15T08:24:40;0.40;95.30
44121;DHT22;29783;52.504;13.478;2023-02-15T08:27:08;0.50;95.40
44121;DHT22;29783;52.504;13.478;2023-02-15T08:29:35;0.60;95.10
44121;DHT22;29783;52.504;13.478;2023-02-15T08:32:04;0.70;94.80
44121;DHT22;29783;52.504;13.478;2023-02-15T08:34:32;0.70;94.50
44121;DHT22;29783;52.504;13.478;2023-02-15T08:36:58;0.70;94.70
44121;DHT22;29783;52.504;13.478;2023-02-15T08:39:24;0.80;94.40
44121;DHT22;29783;52.504;13.478;2023-02-15T08:41:50;0.90;94.50
44121;DHT22;29783;52.504;13.478;2023-02-15T08:44:17;1.10;93.90
44121;DHT22;29783;52.504;13.478;2023-02-15T08:46:44;1.10;93.60
44121;DHT22;29783;52.504;13.478;2023-02-15T08:49:17;1.10;93.30
44121;DHT22;29783;52.504;13.478;2023-02-15T08:51:44;1.10;93.10
44121;DHT22;29783;52.504;13.478;2023-02-15T08:54:13;1.30;93.40
44121;DHT22;29783;52.504;13.478;2023-02-15T08:56:40;1.20;93.10
44121;DHT22;29783;52.504;13.478;2023-02-15T08:59:11;1.30;93.00
44121;DHT22;29783;52.504;13.478;2023-02-15T09:01:37;1.40;92.80
44121;DHT22;29783;52.504;13.478;2023-02-15T09:04:07;1.40;92.50
44121;DHT22;29783;52.504;13.478;2023-02-15T09:06:39;1.50;92.40
44121;DHT22;29783;52.504;13.478;2023-02-15T09:09:07;1.40;92.30
44121;DHT22;29783;52.504;13.478;2023-02-15T09:11:37;1.60;92.20
44121;DHT22;29783;52.504;13.478;2023-02-15T09:14:12;1.50;91.60
44121;DHT22;29783;52.504;13.478;2023-02-15T09:16:45;1.40;92.50
44121;DHT22;29783;52.504;13.478;2023-02-15T09:19:16;1.50;92.20
44121;DHT22;29783;52.504;13.478;2023-02-15T09:21:43;1.60;92.40
44121;DHT22;29783;52.504;13.478;2023-02-15T09:24:10;1.70;92.20
44121;DHT22;29783;52.504;13.478;2023-02-15T09:26:39;1.90;91.90
44121;DHT22;29783;52.504;13.478;2023-02-15T09:29:08;2.20;91.60
44121;DHT22;29783;52.504;13.478;2023-02-15T09:31:42;2.10;90.90
44121;DHT22;29783;52.504;13.478;2023-02-15T09:34:09;2.00;90.70
44121;DHT22;29783;52.504;13.478;2023-02-15T09:36:37;2.00;91.10
44121;DHT22;29783;52.504;13.478;2023-02-15T09:47:50;2.60;89.90
44121;DHT22;29783;52.504;13.478;2023-02-15T09:56:33;2.70;89.00
44121;DHT22;29783;52.504;13.478;2023-02-15T09:59:09;2.60;89.30
44121;DHT22;29783;52.504;13.478;2023-02-15T10:02:02;2.80;89.30
44121;DHT22;29783;52.504;13.478;2023-02-15T10:10:06;2.80;89.00
44121;DHT22;29783;52.504;13.478;2023-02-15T10:13:04;3.10;88.30
44121;DHT22;29783;52.504;13.478;2023-02-15T10:24:06;3.50;87.30
44121;DHT22;29783;52.504;13.478;2023-02-15T10:26:45;3.50;86.70
44121;DHT22;29783;52.504;13.478;2023-02-15T10:40:05;4.10;84.80
44121;DHT22;29783;52.504;13.478;2023-02-15T11:06:52;4.30;83.80
44121;DHT22;29783;52.504;13.478;2023-02-15T11:09:22;4.30;85.30
44121;DHT22;29783;52.504;13.478;2023-02-15T11:11:53;4.40;84.10
44121;DHT22;29783;52.504;13.478;2023-02-15T11:14:26;4.30;85.00
44121;DHT22;29783;52.504;13.478;2023-02-15T11:16:54;4.30;85.10
44121;DHT22;29783;52.504;13.478;2023-02-15T11:19:28;4.30;85.00
44121;DHT22;29783;52.504;13.478;2023-02-15T11:22:01;4.30;85.10
44121;DHT22;29783;52.504;13.478;2023-02-15T11:24:30;4.30;85.20
44121;DHT22;29783;52.504;13.478;2023-02-15T11:27:37;4.30;85.10
44121;DHT22;29783;52.504;13.478;2023-02-15T11:30:14;4.40;85.20
44121;DHT22;29783;52.504;13.478;2023-02-15T11:32:44;4.50;84.60
44121;DHT22;29783;52.504;13.478;2023-02-15T11:37:49;4.50;84.60
44121;DHT22;29783;52.504;13.478;2023-02-15T11:40:30;4.70;84.50
44121;DHT22;29783;52.504;13.478;2023-02-15T11:43:00;4.70;84.10
44121;DHT22;29783;52.504;13.478;2023-02-15T11:45:30;4.80;84.40
44121;DHT22;29783;52.504;13.478;2023-02-15T11:47:57;5.00;83.70
44121;DHT22;29783;52.504;13.478;2023-02-15T11:50:26;5.30;83.10
44121;DHT22;29783;52.504;13.478;2023-02-15T11:52:57;5.40;82.60
44121;DHT22;29783;52.504;13.478;2023-02-15T11:55:24;5.50;81.60
44121;DHT22;29783;52.504;13.478;2023-02-15T11:57:54;5.50;82.00
44121;DHT22;29783;52.504;13.478;2023-02-15T12:00:45;5.50;81.90
44121;DHT22;29783;52.504;13.478;2023-02-15T12:03:22;5.70;82.00
44121;DHT22;29783;52.504;13.478;2023-02-15T12:05:56;5.70;81.30
44121;DHT22;29783;52.504;13.478;2023-02-15T12:08:22;5.80;81.10
44121;DHT22;29783;52.504;13.478;2023-02-15T12:11:07;6.00;80.80
44121;DHT22;29783;52.504;13.478;2023-02-15T12:13:33;6.20;80.00
44121;DHT22;29783;52.504;13.478;2023-02-15T12:16:05;6.30;79.70
44121;DHT22;29783;52.504;13.478;2023-02-15T12:18:42;6.40;79.30
44121;DHT22;29783;52.504;13.478;2023-02-15T12:21:39;6.70;78.40
44121;DHT22;29783;52.504;13.478;2023-02-15T12:26:44;6.80;77.50
44121;DHT22;29783;52.504;13.478;2023-02-15T12:29:16;6.70;78.00
44121;DHT22;29783;52.504;13.478;2023-02-15T12:31:47;6.80;78.20
44121;DHT22;29783;52.504;13.478;2023-02-15T12:36:48;7.00;77.60
44121;DHT22;29783;52.504;13.478;2023-02-15T12:39:25;7.10;77.50
44121;DHT22;29783;52.504;13.478;2023-02-15T12:44:24;7.20;76.70
44121;DHT22;29783;52.504;13.478;2023-02-15T12:49:40;7.40;76.60
44121;DHT22;29783;52.504;13.478;2023-02-15T12:52:22;7.60;75.90
44121;DHT22;29783;52.504;13.478;2023-02-15T12:54:49;8.10;74.20
44121;DHT22;29783;52.504;13.478;2023-02-15T12:59:53;10.30;67.70
44121;DHT22;29783;52.504;13.478;2023-02-15T13:05:17;11.30;63.10
44121;DHT22;29783;52.504;13.478;2023-02-15T13:07:53;12.40;59.20
44121;DHT22;29783;52.504;13.478;2023-02-15T13:10:27;12.70;58.00
44121;DHT22;29783;52.504;13.478;2023-02-15T13:12:55;14.20;53.70
44121;DHT22;29783;52.504;13.478;2023-02-15T13:15:54;14.10;52.80
44121;DHT22;29783;52.504;13.478;2023-02-15T13:18:41;14.90;51.00
44121;DHT22;29783;52.504;13.478;2023-02-15T13:21:23;15.60;48.30
44121;DHT22;29783;52.504;13.478;2023-02-15T13:24:00;15.30;49.30
44121;DHT22;29783;52.504;13.478;2023-02-15T13:26:30;15.70;47.70
44121;DHT22;29783;52.504;13.478;2023-02-15T13:29:00;16.50;46.30
44121;DHT22;29783;52.504;13.478;2023-02-15T13:31:31;15.90;47.30
44121;DHT22;29783;52.504;13.478;2023-02-15T13:42:24;13.80;52.60
44121;DHT22;29783;52.504;13.478;2023-02-15T13:55:26;19.70;39.80
44121;DHT22;29783;52.504;13.478;2023-02-15T14:09:14;16.30;46.30
44121;DHT22;29783;52.504;13.478;2023-02-15T14:14:36;16.70;45.30
44121;DHT22;29783;52.504;13.478;2023-02-15T14:17:42;16.20;46.00
44121;DHT22;29783;52.504;13.478;2023-02-15T14:25:40;16.40;46.20
44121;DHT22;29783;52.504;13.478;2023-02-15T14:28:21;16.40;46.30
44121;DHT22;29783;52.504;13.478;2023-02-15T14:30:52;17.50;44.10
44121;DHT22;29783;52.504;13.478;2023-02-15T14:34:15;17.20;44.70
44121;DHT22;29783;52.504;13.478;2023-02-15T14:36:17;17.10;44.70
44121;DHT22;29783;52.504;13.478;2023-02-15T14:41:47;16.00;47.60
44121;DHT22;29783;52.504;13.478;2023-02-15T14:49:39;16.20;47.50
44121;DHT22;29783;52.504;13.478;2023-02-15T14:52:07;15.80;48.20
44121;DHT22;29783;52.504;13.478;2023-02-15T15:04:55;15.20;49.80
44121;DHT22;29783;52.504;13.478;2023-02-15T15:16:53;14.40;52.50
44121;DHT22;29783;52.504;13.478;2023-02-15T15:22:27;14.70;51.40
44121;DHT22;29783;52.504;13.478;2023-02-15T15:25:02;14.50;52.50
44121;DHT22;29783;52.504;13.478;2023-02-15T15:27:51;14.70;52.70
44121;DHT22;29783;52.504;13.478;2023-02-15T15:41:18;15.50;50.10
44121;DHT22;29783;52.504;13.478;2023-02-15T15:47:01;15.30;49.90
44121;DHT22;29783;52.504;13.478;2023-02-15T15:49:37;14.80;51.10
44121;DHT22;29783;52.504;13.478;2023-02-15T15:52:15;14.70;51.50
44121;DHT22;29783;52.504;13.478;2023-02-15T15:54:41;14.30;52.90
44121;DHT22;29783;52.504;13.478;2023-02-15T15:57:16;14.00;53.90
44121;DHT22;29783;52.504;13.478;2023-02-15T15:59:46;13.70;54.60
44121;DHT22;29783;52.504;13.478;2023-02-15T16:02:15;13.20;55.90
44121;DHT22;29783;52.504;13.478;2023-02-15T16:04:41;12.60;57.40
44121;DHT22;29783;52.504;13.478;2023-02-15T16:10:07;11.70;60.60
44121;DHT22;29783;52.504;13.478;2023-02-15T16:12:46;11.20;62.30
44121;DHT22;29783;52.504;13.478;2023-02-15T16:15:22;10.70;64.00
44121;DHT22;29783;52.504;13.478;2023-02-15T16:17:57;10.40;65.20
44121;DHT22;29783;52.504;13.478;2023-02-15T16:20:27;10.20;66.00
44121;DHT22;29783;52.504;13.478;2023-02-15T16:28:19;9.30;69.40
44121;DHT22;29783;52.504;13.478;2023-02-15T16:30:46;9.00;70.30
44121;DHT22;29783;52.504;13.478;2023-02-15T16:33:19;8.80;71.10
44121;DHT22;29783;52.504;13.478;2023-02-15T16:35:55;8.60;71.70
44121;DHT22;29783;52.504;13.478;2023-02-15T16:41:22;8.20;73.50
44121;DHT22;29783;52.504;13.478;2023-02-15T16:43:49;8.00;74.00
44121;DHT22;29783;52.504;13.478;2023-02-15T16:46:21;7.80;74.60
44121;DHT22;29783;52.504;13.478;2023-02-15T16:48:51;7.60;75.30
44121;DHT22;29783;52.504;13.478;2023-02-15T16:51:27;7.50;76.00
44121;DHT22;29783;52.504;13.478;2023-02-15T16:53:54;7.40;76.30
44121;DHT22;29783;52.504;13.478;2023-02-15T16:56:26;7.30;77.00
44121;DHT22;29783;52.504;13.478;2023-02-15T16:58:54;7.10;77.50
44121;DHT22;29783;52.504;13.478;2023-02-15T17:01:22;7.00;77.90
44121;DHT22;29783;52.504;13.478;2023-02-15T17:03:51;6.90;78.70
44121;DHT22;29783;52.504;13.478;2023-02-15T17:06:27;6.80;79.20
44121;DHT22;29783;52.504;13.478;2023-02-15T17:09:12;6.70;79.70
44121;DHT22;29783;52.504;13.478;2023-02-15T17:11:43;6.60;80.00
44121;DHT22;29783;52.504;13.478;2023-02-15T17:16:40;6.40;80.90
44121;DHT22;29783;52.504;13.478;2023-02-15T17:19:30;6.30;81.40
44121;DHT22;29783;52.504;13.478;2023-02-15T17:22:03;6.20;81.80
44121;DHT22;29783;52.504;13.478;2023-02-15T17:24:40;6.10;82.10
44121;DHT22;29783;52.504;13.478;2023-02-15T17:27:19;6.10;82.50
44121;DHT22;29783;52.504;13.478;2023-02-15T17:29:58;6.00;83.20
44121;DHT22;29783;52.504;13.478;2023-02-15T17:32:26;5.90;83.30
44121;DHT22;29783;52.504;13.478;2023-02-15T17:35:21;5.80;83.60
44121;DHT22;29783;52.504;13.478;2023-02-15T17:37:49;5.80;84.20
44121;DHT22;29783;52.504;13.478;2023-02-15T17:42:44;5.70;84.60
44121;DHT22;29783;52.504;13.478;2023-02-15T17:45:09;5.60;84.90
44121;DHT22;29783;52.504;13.478;2023-02-15T17:47:35;5.50;85.10
44121;DHT22;29783;52.504;13.478;2023-02-15T17:50:03;5.50;85.40
44121;DHT22;29783;52.504;13.478;2023-02-15T17:52:30;5.40;85.50
44121;DHT22;29783;52.504;13.478;2023-02-15T17:54:56;5.30;85.70
44121;DHT22;29783;52.504;13.478;2023-02-15T17:57:40;5.30;85.90
44121;DHT22;29783;52.504;13.478;2023-02-15T18:00:07;5.30;86.10
44121;DHT22;29783;52.504;13.478;2023-02-15T18:02:51;5.20;86.50
44121;DHT22;29783;52.504;13.478;2023-02-15T18:05:37;5.20;86.50
44121;DHT22;29783;52.504;13.478;2023-02-15T18:08:26;5.10;86.70
44121;DHT22;29783;52.504;13.478;2023-02-15T18:11:10;5.00;86.90
44121;DHT22;29783;52.504;13.478;2023-02-15T18:13:55;5.10;87.10
44121;DHT22;29783;52.504;13.478;2023-02-15T18:16:27;5.00;87.00
44121;DHT22;29783;52.504;13.478;2023-02-15T18:18:55;4.90;87.30
44121;DHT22;29783;52.504;13.478;2023-02-15T18:21:22;4.80;87.70
44121;DHT22;29783;52.504;13.478;2023-02-15T18:23:48;4.80;87.80
44121;DHT22;29783;52.504;13.478;2023-02-15T18:26:24;4.70;88.00
44121;DHT22;29783;52.504;13.478;2023-02-15T18:28:50;4.70;88.30
44121;DHT22;29783;52.504;13.478;2023-02-15T18:31:17;4.60;88.50
44121;DHT22;29783;52.504;13.478;2023-02-15T18:33:49;4.60;88.50
44121;DHT22;29783;52.504;13.478;2023-02-15T18:36:23;4.50;88.70
44121;DHT22;29783;52.504;13.478;2023-02-15T18:38:54;4.50;88.90
44121;DHT22;29783;52.504;13.478;2023-02-15T18:41:21;4.40;89.00
44121;DHT22;29783;52.504;13.478;2023-02-15T18:43:47;4.40;89.10
44121;DHT22;29783;52.504;13.478;2023-02-15T18:46:14;4.40;89.30
44121;DHT22;29783;52.504;13.478;2023-02-15T18:48:40;4.30;89.40
44121;DHT22;29783;52.504;13.478;2023-02-15T18:51:16;4.30;89.60
44121;DHT22;29783;52.504;13.478;2023-02-15T18:53:43;4.30;89.80
44121;DHT22;29783;52.504;13.478;2023-02-15T18:56:21;4.30;90.00
44121;DHT22;29783;52.504;13.478;2023-02-15T18:58:47;4.20;90.00
44121;DHT22;29783;52.504;13.478;2023-02-15T19:01:17;4.10;90.10
44121;DHT22;29783;52.504;13.478;2023-02-15T19:03:45;4.10;90.20
44121;DHT22;29783;52.504;13.478;2023-02-15T19:06:13;4.00;90.40
44121;DHT22;29783;52.504;13.478;2023-02-15T19:08:41;4.00;90.50
44121;DHT22;29783;52.504;13.478;2023-02-15T19:11:22;4.00;90.70
44121;DHT22;29783;52.504;13.478;2023-02-15T19:13:48;4.00;90.80
44121;DHT22;29783;52.504;13.478;2023-02-15T19:16:33;3.90;90.90
44121;DHT22;29783;52.504;13.478;2023-02-15T19:19:00;3.90;91.00